sensor_id;sensor_type;location;lat;lon;timestamp;temperature;humidity
35258;DHT22;21385;50.878;8.050;2023-06-10T00:54:50;18.00;99.90
35258;DHT22;21385;50.878;8.050;2023-06-10T00:57:15;18.10;99.90
35258;DHT22;21385;50.878;8.050;2023-06-10T00:59:44;18.00;99.90
35258;DHT22;21385;50.878;8.050;2023-06-10T01:02:11;18.00;99.90
35258;DHT22;21385;50.878;8.050;2023-06-10T01:04:36;18.00;99.90
35258;DHT22;21385;50.878;8.050;2023-06-10T01:07:23;17.90;99.90
35258;DHT22;21385;50.878;8.050;2023-06-10T01:10:20;17.90;99.90
35258;DHT22;21385;50.878;8.050;2023-06-10T01:12:59;17.80;99.90
35258;DHT22;21385;50.878;8.050;2023-06-10T01:15:31;17.80;99.90
35258;DHT22;21385;50.878;8.050;2023-06-10T01:20:27;17.70;99.90
35258;DHT22;21385;50.878;8.050;2023-06-10T01:22:54;17.60;99.90
35258;DHT22;21385;50.878;8.050;2023-06-10T01:25:23;17.60;99.90
35258;DHT22;21385;50.878;8.050;2023-06-10T01:30:26;17.50;99.90
35258;DHT22;21385;50.878;8.050;2023-06-10T01:32:57;17.50;99.90
35258;DHT22;21385;50.878;8.050;2023-06-10T01:35:25;17.50;99.90
35258;DHT22;21385;50.878;8.050;2023-06-10T01:37:54;17.40;99.90
35258;DHT22;21385;50.878;8.050;2023-06-10T01:40:23;17.40;99.90
35258;DHT22;21385;50.878;8.050;2023-06-10T01:42:49;17.40;99.90
35258;DHT22;21385;50.878;8.050;2023-06-10T01:45:15;17.40;99.90
35258;DHT22;21385;50.878;8.050;2023-06-10T01:47:40;17.40;99.90
35258;DHT22;21385;50.878;8.050;2023-06-10T01:50:07;17.30;99.90
35258;DHT22;21385;50.878;8.050;2023-06-10T01:52:32;17.30;99.90
35258;DHT22;21385;50.878;8.050;2023-06-10T01:54:58;17.30;99.90
35258;DHT22;21385;50.878;8.050;2023-06-10T01:57:23;17.20;99.90
35258;DHT22;21385;50.878;8.050;2023-06-10T01:59:49;17.20;99.90
35258;DHT22;21385;50.878;8.050;2023-06-10T02:02:15;17.10;99.90
35258;DHT22;21385;50.878;8.050;2023-06-10T02:04:41;17.10;99.90
35258;DHT22;21385;50.878;8.050;2023-06-10T02:07:06;17.10;99.90
35258;DHT22;21385;50.878;8.050;2023-06-10T02:09:32;17.10;99.90
35258;DHT22;21385;50.878;8.050;2023-06-10T02:12:01;17.00;99.90
35258;DHT22;21385;50.878;8.050;2023-06-10T02:14:27;17.00;99.90
35258;DHT22;21385;50.878;8.050;2023-06-10T02:16:53;17.00;99.90
35258;DHT22;21385;50.878;8.050;2023-06-10T02:19:22;16.90;99.90
35258;DHT22;21385;50.878;8.050;2023-06-10T02:21:47;16.90;99.90
35258;DHT22;21385;50.878;8.050;2023-06-10T02:24:13;16.90;99.90
35258;DHT22;21385;50.878;8.050;2023-06-10T02:26:40;16.80;99.90
35258;DHT22;21385;50.878;8.050;2023-06-10T02:29:06;16.80;99.90
35258;DHT22;21385;50.878;8.050;2023-06-10T02:31:31;16.80;99.90
35258;DHT22;21385;50.878;8.050;2023-06-10T02:34:01;16.80;99.90
35258;DHT22;21385;50.878;8.050;2023-06-10T02:36:26;16.70;99.90
35258;DHT22;21385;50.878;8.050;2023-06-10T02:38:53;16.70;99.90
35258;DHT22;21385;50.878;8.050;2023-06-10T02:41:18;16.60;99.90
35258;DHT22;21385;50.878;8.050;2023-06-10T02:43:44;16.60;99.90
35258;DHT22;21385;50.878;8.050;2023-06-10T02:46:09;16.50;99.90
35258;DHT22;21385;50.878;8.050;2023-06-10T02:48:45;16.50;99.90
35258;DHT22;21385;50.878;8.050;2023-06-10T02:51:11;16.50;99.90
35258;DHT22;21385;50.878;8.050;2023-06-10T02:53:36;16.50;99.90
35258;DHT22;21385;50.878;8.050;2023-06-10T02:56:02;16.50;99.90
35258;DHT22;21385;50.878;8.050;2023-06-10T02:58:28;16.40;99.90
35258;DHT22;21385;50.878;8.050;2023-06-10T03:00:54;16.40;99.90
35258;DHT22;21385;50.878;8.050;2023-06-10T03:03:20;16.40;99.90
35258;DHT22;21385;50.878;8.050;2023-06-10T03:05:48;16.40;99.90
35258;DHT22;21385;50.878;8.050;2023-06-10T03:08:13;16.40;99.90
35258;DHT22;21385;50.878;8.050;2023-06-10T03:10:39;16.40;99.90
35258;DHT22;21385;50.878;8.050;2023-06-10T03:13:04;16.30;99.90
35258;DHT22;21385;50.878;8.050;2023-06-10T03:15:30;16.30;99.90
35258;DHT22;21385;50.878;8.050;2023-06-10T03:18:01;16.20;99.90
35258;DHT22;21385;50.878;8.050;2023-06-10T03:20:27;16.20;99.90
35258;DHT22;21385;50.878;8.050;2023-06-10T03:22:54;16.20;99.90
35258;DHT22;21385;50.878;8.050;2023-06-10T03:25:20;16.10;99.90
35258;DHT22;21385;50.878;8.050;2023-06-10T03:27:46;16.10;99.90
35258;DHT22;21385;50.878;8.050;2023-06-10T03:30:13;16.10;99.90
35258;DHT22;21385;50.878;8.050;2023-06-10T03:32:39;16.00;99.90
35258;DHT22;21385;50.878;8.050;2023-06-10T03:35:05;16.00;99.90
35258;DHT22;21385;50.878;8.050;2023-06-10T03:37:30;15.90;99.90
35258;DHT22;21385;50.878;8.050;2023-06-10T03:39:56;15.90;99.90
35258;DHT22;21385;50.878;8.050;2023-06-10T03:42:21;15.80;99.90
35258;DHT22;21385;50.878;8.050;2023-06-10T03:44:47;15.80;99.90
35258;DHT22;21385;50.878;8.050;2023-06-10T03:47:12;15.70;99.90
35258;DHT22;21385;50.878;8.050;2023-06-10T03:49:38;15.70;99.90
35258;DHT22;21385;50.878;8.050;2023-06-10T03:52:06;15.70;99.90
35258;DHT22;21385;50.878;8.050;2023-06-10T03:54:31;15.70;99.90
35258;DHT22;21385;50.878;8.050;2023-06-10T03:56:59;15.80;99.90
35258;DHT22;21385;50.878;8.050;2023-06-10T03:59:25;15.70;99.90
35258;DHT22;21385;50.878;8.050;2023-06-10T04:01:51;15.80;99.90
35258;DHT22;21385;50.878;8.050;2023-06-10T04:04:16;15.80;99.90
35258;DHT22;21385;50.878;8.050;2023-06-10T04:06:42;15.80;99.90
35258;DHT22;21385;50.878;8.050;2023-06-10T04:09:09;15.90;99.90
35258;DHT22;21385;50.878;8.050;2023-06-10T04:11:35;15.90;99.90
35258;DHT22;21385;50.878;8.050;2023-06-10T04:14:01;15.90;99.90
35258;DHT22;21385;50.878;8.050;2023-06-10T04:16:27;15.90;99.90
35258;DHT22;21385;50.878;8.050;2023-06-10T04:18:53;15.90;99.90
35258;DHT22;21385;50.878;8.050;2023-06-10T04:21:18;15.90;99.90
35258;DHT22;21385;50.878;8.050;2023-06-10T04:23:44;15.90;99.90
35258;DHT22;21385;50.878;8.050;2023-06-10T04:26:09;15.90;99.90
35258;DHT22;21385;50.878;8.050;2023-06-10T04:28:37;15.90;99.90
35258;DHT22;21385;50.878;8.050;2023-06-10T04:31:03;15.90;99.90
35258;DHT22;21385;50.878;8.050;2023-06-10T04:33:30;15.90;99.90
35258;DHT22;21385;50.878;8.050;2023-06-10T04:35:56;16.00;99.90
35258;DHT22;21385;50.878;8.050;2023-06-10T04:38:21;16.00;99.90
35258;DHT22;21385;50.878;8.050;2023-06-10T04:40:47;16.00;99.90
35258;DHT22;21385;50.878;8.050;2023-06-10T04:43:13;16.00;99.90
35258;DHT22;21385;50.878;8.050;2023-06-10T04:45:39;16.00;99.90
35258;DHT22;21385;50.878;8.050;2023-06-10T04:48:05;16.10;99.90
35258;DHT22;21385;50.878;8.050;2023-06-10T04:50:30;16.10;99.90
35258;DHT22;21385;50.878;8.050;2023-06-10T04:52:58;16.10;99.90
35258;DHT22;21385;50.878;8.050;2023-06-10T04:55:24;16.10;99.90
35258;DHT22;21385;50.878;8.050;2023-06-10T04:57:50;16.20;99.90
35258;DHT22;21385;50.878;8.050;2023-06-10T05:00:16;16.20;99.90
35258;DHT22;21385;50.878;8.050;2023-06-10T05:02:42;16.20;99.90
35258;DHT22;21385;50.878;8.050;2023-06-10T05:07:34;16.30;99.90
35258;DHT22;21385;50.878;8.050;2023-06-10T05:10:00;16.40;99.90
35258;DHT22;21385;50.878;8.050;2023-06-10T05:12:26;16.40;99.90
35258;DHT22;21385;50.878;8.050;2023-06-10T05:14:51;16.40;99.90
35258;DHT22;21385;50.878;8.050;2023-06-10T05:17:17;16.50;99.90
35258;DHT22;21385;50.878;8.050;2023-06-10T05:19:43;16.60;99.90
35258;DHT22;21385;50.878;8.050;2023-06-10T05:22:09;16.60;99.90
35258;DHT22;21385;50.878;8.050;2023-06-10T05:24:35;16.70;99.90
35258;DHT22;21385;50.878;8.050;2023-06-10T05:27:00;16.80;99.90
35258;DHT22;21385;50.878;8.050;2023-06-10T05:29:26;16.80;99.90
35258;DHT22;21385;50.878;8.050;2023-06-10T05:31:52;16.80;99.90
35258;DHT22;21385;50.878;8.050;2023-06-10T05:34:18;16.80;99.90
35258;DHT22;21385;50.878;8.050;2023-06-10T05:36:43;16.90;99.90
35258;DHT22;21385;50.878;8.050;2023-06-10T05:39:09;16.90;99.90
35258;DHT22;21385;50.878;8.050;2023-06-10T05:41:35;17.00;99.90
35258;DHT22;21385;50.878;8.050;2023-06-10T05:44:01;17.10;99.90
35258;DHT22;21385;50.878;8.050;2023-06-10T05:48:52;17.30;99.90
35258;DHT22;21385;50.878;8.050;2023-06-10T05:51:18;17.30;99.90
35258;DHT22;21385;50.878;8.050;2023-06-10T05:53:43;17.40;99.90
35258;DHT22;21385;50.878;8.050;2023-06-10T05:58:37;17.60;99.90
35258;DHT22;21385;50.878;8.050;2023-06-10T06:03:29;17.80;99.90
35258;DHT22;21385;50.878;8.050;2023-06-10T06:05:54;17.90;99.90
35258;DHT22;21385;50.878;8.050;2023-06-10T06:08:20;18.00;99.90
35258;DHT22;21385;50.878;8.050;2023-06-10T06:13:13;18.20;99.90
35258;DHT22;21385;50.878;8.050;2023-06-10T21:27:50;23.50;81.60
35258;DHT22;21385;50.878;8.050;2023-06-10T21:30:16;23.50;83.40
35258;DHT22;21385;50.878;8.050;2023-06-10T21:32:42;23.40;84.40
35258;DHT22;21385;50.878;8.050;2023-06-10T21:35:08;23.30;85.20
35258;DHT22;21385;50.878;8.050;2023-06-10T21:37:34;23.20;86.50
35258;DHT22;21385;50.878;8.050;2023-06-10T21:39:59;23.10;87.60
35258;DHT22;21385;50.878;8.050;2023-06-10T21:42:25;23.00;88.30
35258;DHT22;21385;50.878;8.050;2023-06-10T21:44:50;22.90;88.90
35258;DHT22;21385;50.878;8.050;2023-06-10T21:47:16;22.90;90.00
35258;DHT22;21385;50.878;8.050;2023-06-10T21:49:42;22.80;89.30
35258;DHT22;21385;50.878;8.050;2023-06-10T21:52:08;22.80;89.60
35258;DHT22;21385;50.878;8.050;2023-06-10T21:54:33;22.80;89.40
35258;DHT22;21385;50.878;8.050;2023-06-10T21:56:59;22.70;89.30
35258;DHT22;21385;50.878;8.050;2023-06-10T21:59:24;22.70;89.90
35258;DHT22;21385;50.878;8.050;2023-06-10T22:01:50;22.70;90.00
35258;DHT22;21385;50.878;8.050;2023-06-10T22:04:15;22.70;90.40
35258;DHT22;21385;50.878;8.050;2023-06-10T22:06:41;22.70;90.80
35258;DHT22;21385;50.878;8.050;2023-06-10T22:09:08;22.70;91.20
35258;DHT22;21385;50.878;8.050;2023-06-10T22:11:33;22.60;91.60
35258;DHT22;21385;50.878;8.050;2023-06-10T22:13:59;22.50;91.90
35258;DHT22;21385;50.878;8.050;2023-06-10T22:16:25;22.40;92.40
35258;DHT22;21385;50.878;8.050;2023-06-10T22:18:51;22.30;92.90
35258;DHT22;21385;50.878;8.050;2023-06-10T22:21:16;22.30;93.10
35258;DHT22;21385;50.878;8.050;2023-06-10T22:23:42;22.20;93.30
35258;DHT22;21385;50.878;8.050;2023-06-10T22:26:07;22.20;93.50
35258;DHT22;21385;50.878;8.050;2023-06-10T22:28:33;22.10;93.40
35258;DHT22;21385;50.878;8.050;2023-06-10T22:30:58;22.10;93.30
35258;DHT22;21385;50.878;8.050;2023-06-10T22:33:24;22.00;93.80
35258;DHT22;21385;50.878;8.050;2023-06-10T22:35:50;22.00;94.00
35258;DHT22;21385;50.878;8.050;2023-06-10T22:38:15;21.90;94.10
35258;DHT22;21385;50.878;8.050;2023-06-10T22:40:41;21.80;94.50
35258;DHT22;21385;50.878;8.050;2023-06-10T22:43:07;21.80;94.60
35258;DHT22;21385;50.878;8.050;2023-06-10T22:45:32;21.80;94.80
35258;DHT22;21385;50.878;8.050;2023-06-10T22:47:58;21.70;95.20
35258;DHT22;21385;50.878;8.050;2023-06-10T22:50:26;21.60;95.40
35258;DHT22;21385;50.878;8.050;2023-06-10T22:52:52;21.60;95.40
35258;DHT22;21385;50.878;8.050;2023-06-10T22:55:18;21.60;95.50
35258;DHT22;21385;50.878;8.050;2023-06-10T22:57:44;21.60;95.80
35258;DHT22;21385;50.878;8.050;2023-06-10T23:00:13;21.50;96.10
35258;DHT22;21385;50.878;8.050;2023-06-10T23:02:38;21.50;96.30
35258;DHT22;21385;50.878;8.050;2023-06-10T23:05:05;21.50;96.60
35258;DHT22;21385;50.878;8.050;2023-06-10T23:07:32;21.40;96.70
35258;DHT22;21385;50.878;8.050;2023-06-10T23:09:57;21.40;96.90
35258;DHT22;21385;50.878;8.050;2023-06-10T23:12:23;21.30;97.20
35258;DHT22;21385;50.878;8.050;2023-06-10T23:14:49;21.30;97.00
35258;DHT22;21385;50.878;8.050;2023-06-10T23:17:14;21.30;97.40
35258;DHT22;21385;50.878;8.050;2023-06-10T23:19:40;21.20;97.70
35258;DHT22;21385;50.878;8.050;2023-06-10T23:22:08;21.20;97.90
35258;DHT22;21385;50.878;8.050;2023-06-10T23:24:36;21.20;98.20
35258;DHT22;21385;50.878;8.050;2023-06-10T23:27:04;21.10;98.10
35258;DHT22;21385;50.878;8.050;2023-06-10T23:29:31;21.10;98.30
35258;DHT22;21385;50.878;8.050;2023-06-10T23:31:57;21.10;98.60
35258;DHT22;21385;50.878;8.050;2023-06-10T23:34:22;21.00;98.90
35258;DHT22;21385;50.878;8.050;2023-06-10T23:36:48;21.00;99.10
35258;DHT22;21385;50.878;8.050;2023-06-10T23:39:14;20.90;99.40
35258;DHT22;21385;50.878;8.050;2023-06-10T23:41:40;20.90;99.60
35258;DHT22;21385;50.878;8.050;2023-06-10T23:44:06;20.90;99.70
35258;DHT22;21385;50.878;8.050;2023-06-10T23:46:35;21.00;99.80
35258;DHT22;21385;50.878;8.050;2023-06-10T23:49:01;20.90;99.60
35258;DHT22;21385;50.878;8.050;2023-06-10T23:51:26;20.90;99.80
35258;DHT22;21385;50.878;8.050;2023-06-10T23:53:52;20.90;99.90
35258;DHT22;21385;50.878;8.050;2023-06-10T23:56:19;20.80;99.90
35258;DHT22;21385;50.878;8.050;2023-06-10T23:58:44;20.70;99.90
